Pagrindinis puslapis
METAR-TAF:

METAR-TAF

Oro uostai :

Epinalis, Prancūzija

platuma: 48-19-31N, ilguma: 6-04-00E, Aukštis: 330 m

Dabartinis oras

Ataskaita buvo paskelbta 36 minutes, ne 10:00 UTC
Vėjas 12 kt iš Rytų/Šiaurės Rytų, svyruoja nuo Šiaurės/Šiaurės Rytų ir Rytų
Temperatūra 18°C
Drėgmė 42%
Slėgis 1019 hPa
Matomumas 10 km arba daugiau
nėra debesų žemiau 1500 m ir nėra kamuolinių lietaus debesų

METAR: LFSG 311000Z AUTO 06012KT 020V080 CAVOK 18/05 Q1019

Laikas: 12:36 (10:36 UTC)


TAF: trūkstamas

Orai ataskaitas ir orų prognozės (METAR, TAF).

turimą stotys yra geltonos ir raudonos taškus žemėlapyje.

Perkelti pele per norėdami pamatyti stoties vardą.

Tada spustelėkite, norėdami matyti oro stebėjimo ir prognozės.

Norėdami pakeisti žemėlapį: spustelėkite ant žalios mygtukų su juodo kryžiaus žemyn,; žalią mygtuką su brūkšneliu, jei norite nutolinti; arba žalių rodyklių gretimoms žemėlapius.


METAR-TAF: